Time;durP1;ratioP1;P1;durP2;ratioP2;P2;SDS_P1;SDS_P2;PMS_P1;PMS_P2;Temp;Humidity;BMP_temperature;BMP_pressure;BME280_temperature;BME280_humidity;BME280_pressure;Samples;Min_cycle;Max_cycle;Signal;HPM_P1;HPM_P2
2022/04/24 05:02:34;;;;;;;4.70;2.00;;;8.30;99.90;;;;;;6155912;23;20020;-76
2022/04/24 05:05:00;;;;;;;7.82;2.10;;;8.10;99.90;;;;;;6223789;23;20004;-76
2022/04/24 05:07:26;;;;;;;3.17;1.08;;;8.10;99.90;;;;;;6198219;23;20004;-75
2022/04/24 05:09:52;;;;;;;2.40;1.15;;;8.00;99.90;;;;;;6223674;23;20007;-75
2022/04/24 05:12:17;;;;;;;2.95;0.75;;;8.00;99.90;;;;;;6224777;23;20000;-76
2022/04/24 05:14:43;;;;;;;3.15;0.80;;;7.90;99.90;;;;;;6224480;23;20004;-76
2022/04/24 05:17:09;;;;;;;3.20;0.60;;;7.90;99.90;;;;;;6196968;23;20064;-75
2022/04/24 05:19:35;;;;;;;4.75;0.73;;;7.80;99.90;;;;;;6224755;23;20190;-75
2022/04/24 05:22:01;;;;;;;3.33;0.70;;;7.80;99.90;;;;;;6223732;23;20040;-77
2022/04/24 05:24:27;;;;;;;4.60;0.45;;;7.70;99.90;;;;;;6224415;23;20011;-76
2022/04/24 05:26:53;;;;;;;2.03;0.30;;;7.70;99.90;;;;;;6197513;23;19997;-77
2022/04/24 05:29:19;;;;;;;2.42;0.40;;;7.70;99.90;;;;;;6224054;23;20241;-76
2022/04/24 05:31:44;;;;;;;1.52;0.28;;;7.60;99.90;;;;;;6223574;23;20336;-76
2022/04/24 05:34:10;;;;;;;3.40;0.40;;;7.60;99.90;;;;;;6197167;23;20015;-75
2022/04/24 05:36:36;;;;;;;2.25;0.30;;;7.60;99.90;;;;;;6224032;23;20001;-74
2022/04/24 05:39:02;;;;;;;1.63;0.20;;;7.50;99.90;;;;;;6223585;23;19997;-75
2022/04/24 05:41:27;;;;;;;1.00;0.20;;;7.50;99.90;;;;;;6224189;23;20001;-74
2022/04/24 05:43:53;;;;;;;0.77;0.20;;;7.40;99.90;;;;;;6224151;23;20001;-81
2022/04/24 05:46:19;;;;;;;0.45;0.17;;;7.50;99.90;;;;;;6223724;23;20055;-75
2022/04/24 05:48:45;;;;;;;1.85;0.10;;;7.50;99.90;;;;;;6224639;23;19999;-75
2022/04/24 05:51:10;;;;;;;1.45;0.10;;;7.40;99.90;;;;;;6223971;23;20062;-75
2022/04/24 05:53:37;;;;;;;0.50;0.20;;;7.40;99.90;;;;;;6224440;23;20312;-74
2022/04/24 05:56:04;;;;;;;2.80;0.20;;;7.30;99.90;;;;;;6223645;23;20001;-74
2022/04/24 05:58:29;;;;;;;0.57;0.20;;;7.30;99.90;;;;;;6222980;23;20035;-75
2022/04/24 06:00:55;;;;;;;1.50;0.20;;;7.40;99.90;;;;;;6223425;23;20012;-76
2022/04/24 06:03:21;;;;;;;2.13;0.20;;;7.40;99.90;;;;;;6200064;23;20013;-75
2022/04/24 06:05:48;;;;;;;0.52;0.10;;;7.40;99.90;;;;;;6169978;23;20305;-75
2022/04/24 06:08:14;;;;;;;0.77;0.20;;;7.30;99.90;;;;;;6195258;23;20242;-76
2022/04/24 06:10:41;;;;;;;0.60;0.20;;;7.30;99.90;;;;;;6196133;23;20373;-75
2022/04/24 06:13:07;;;;;;;1.08;0.17;;;7.30;99.90;;;;;;6169106;23;20208;-75
2022/04/24 06:15:33;;;;;;;0.85;0.20;;;7.30;99.90;;;;;;6168980;23;20020;-75
2022/04/24 06:17:59;;;;;;;1.08;0.22;;;7.30;99.90;;;;;;6194885;23;20005;-75
2022/04/24 06:20:27;;;;;;;1.67;0.20;;;7.30;99.90;;;;;;6195642;23;20293;-75
2022/04/24 06:22:57;;;;;;;2.05;0.20;;;7.30;99.90;;;;;;6195228;23;20001;-76
2022/04/24 06:25:32;;;;;;;1.35;0.50;;;7.30;99.90;;;;;;6195465;23;20049;-76
2022/04/24 06:27:58;;;;;;;1.05;0.20;;;7.30;99.90;;;;;;6195146;23;20024;-75
2022/04/24 06:30:29;;;;;;;2.03;0.20;;;7.30;99.90;;;;;;6169152;23;20299;-76
2022/04/24 06:33:01;;;;;;;1.08;0.20;;;7.40;99.90;;;;;;6195447;23;20051;-76
2022/04/24 06:35:27;;;;;;;0.75;0.10;;;7.40;99.90;;;;;;6169678;23;20116;-76
2022/04/24 06:37:55;;;;;;;0.40;0.10;;;7.40;99.90;;;;;;6195109;23;20357;-77
2022/04/24 06:40:25;;;;;;;1.17;0.28;;;7.30;99.90;;;;;;6169208;23;20005;-76
2022/04/24 06:43:00;;;;;;;2.92;0.35;;;7.40;99.90;;;;;;6195544;23;20175;-76
2022/04/24 06:45:37;;;;;;;0.52;0.20;;;7.30;99.90;;;;;;6194840;23;20303;-75
2022/04/24 06:48:05;;;;;;;0.93;0.20;;;7.40;99.90;;;;;;6194703;23;20008;-75
2022/04/24 06:50:32;;;;;;;0.28;0.10;;;7.40;99.90;;;;;;6195583;23;20060;-75
2022/04/24 06:53:03;;;;;;;0.90;0.10;;;7.40;99.90;;;;;;6168920;23;20253;-76
2022/04/24 06:55:30;;;;;;;0.80;0.10;;;7.50;99.90;;;;;;6195382;23;20063;-75
2022/04/24 06:57:56;;;;;;;1.90;0.20;;;7.50;99.90;;;;;;6195268;23;20032;-77
2022/04/24 07:00:24;;;;;;;0.63;0.20;;;7.60;99.90;;;;;;6195081;23;20136;-75
2022/04/24 07:02:50;;;;;;;1.48;0.10;;;7.60;99.90;;;;;;6194862;23;20013;-75
2022/04/24 07:05:19;;;;;;;0.70;0.20;;;7.60;99.90;;;;;;6194802;23;20013;-75
2022/04/24 07:07:44;;;;;;;;;;;7.50;99.90;;;;;;6195700;23;20052;-76
2022/04/24 07:10:10;;;;;;;1.17;0.10;;;7.50;99.90;;;;;;6194694;23;19963;-76
2022/04/24 07:12:45;;;;;;;0.30;0.10;;;7.60;99.90;;;;;;6195180;23;20052;-75
2022/04/24 07:15:11;;;;;;;0.50;0.10;;;7.70;99.90;;;;;;6194465;23;20008;-75
2022/04/24 07:17:36;;;;;;;1.10;0.15;;;7.60;99.90;;;;;;6195339;23;20048;-75
2022/04/24 07:20:02;;;;;;;2.33;0.20;;;7.60;99.90;;;;;;6194907;23;20024;-76
2022/04/24 07:22:28;;;;;;;0.50;0.10;;;7.60;99.90;;;;;;6169112;23;20005;-76
2022/04/24 07:24:54;;;;;;;0.90;0.20;;;7.60;99.90;;;;;;6169265;23;20036;-75
2022/04/24 07:27:20;;;;;;;1.45;0.20;;;7.60;99.90;;;;;;6194992;23;20309;-76
2022/04/24 07:29:46;;;;;;;0.20;0.10;;;7.60;99.90;;;;;;6195338;23;20337;-76
2022/04/24 07:32:12;;;;;;;0.57;0.10;;;7.70;99.90;;;;;;6193859;23;20005;-76
2022/04/24 07:34:37;;;;;;;0.47;0.13;;;7.60;99.90;;;;;;6195346;23;20310;-75
2022/04/24 07:37:03;;;;;;;2.05;0.50;;;7.70;99.90;;;;;;6194464;23;20008;-75
2022/04/24 07:39:31;;;;;;;0.57;0.20;;;7.70;99.90;;;;;;6195038;23;20345;-76
2022/04/24 07:41:56;;;;;;;0.75;0.28;;;7.70;99.90;;;;;;6195167;23;20004;-75
2022/04/24 07:44:22;;;;;;;1.60;0.20;;;7.80;99.90;;;;;;6194648;23;20001;-75
2022/04/24 07:46:48;;;;;;;1.88;0.32;;;7.80;99.90;;;;;;6194479;23;20017;-75
2022/04/24 07:49:13;;;;;;;0.70;0.20;;;7.90;99.90;;;;;;6194534;23;20341;-77
2022/04/24 07:51:39;;;;;;;1.63;0.40;;;7.90;99.90;;;;;;6195578;23;20012;-75
2022/04/24 07:54:05;;;;;;;0.65;0.20;;;7.80;99.90;;;;;;6168233;23;20013;-77
2022/04/24 07:56:31;;;;;;;1.20;0.43;;;7.80;99.90;;;;;;6194298;23;20009;-77
2022/04/24 07:58:57;;;;;;;1.10;0.20;;;7.80;99.90;;;;;;6195193;23;20009;-76
2022/04/24 08:01:23;;;;;;;1.13;0.22;;;7.80;99.90;;;;;;6194254;23;20019;-76
2022/04/24 08:03:49;;;;;;;1.05;0.25;;;7.80;99.90;;;;;;6195251;23;20027;-76
2022/04/24 08:06:15;;;;;;;2.03;0.43;;;7.90;99.90;;;;;;6193643;23;20072;-77
2022/04/24 08:08:41;;;;;;;1.27;0.30;;;8.00;99.90;;;;;;6168660;23;20302;-78
2022/04/24 08:11:07;;;;;;;0.65;0.28;;;8.10;99.90;;;;;;6193794;23;20052;-77
2022/04/24 08:13:33;;;;;;;0.82;0.30;;;8.20;99.90;;;;;;6143389;23;20055;-77
2022/04/24 08:15:59;;;;;;;1.38;0.30;;;8.30;99.90;;;;;;6167429;23;20055;-77
2022/04/24 08:18:25;;;;;;;0.88;0.30;;;8.30;99.90;;;;;;6168283;23;20005;-74
2022/04/24 08:20:51;;;;;;;1.00;0.30;;;8.30;99.90;;;;;;6194449;23;20005;-75
2022/04/24 08:23:17;;;;;;;1.15;0.40;;;8.30;99.90;;;;;;6193472;23;20005;-75
2022/04/24 08:25:43;;;;;;;2.20;0.52;;;8.30;99.90;;;;;;6194147;23;20074;-75
2022/04/24 08:28:11;;;;;;;1.33;0.30;;;8.40;99.90;;;;;;6193722;23;20029;-75
2022/04/24 08:30:42;;;;;;;0.70;0.30;;;8.40;99.90;;;;;;6194289;23;20325;-75
2022/04/24 08:33:09;;;;;;;0.70;0.30;;;8.40;99.90;;;;;;6193620;23;20009;-76
2022/04/24 08:35:35;;;;;;;1.30;0.60;;;8.30;99.90;;;;;;6194081;23;20048;-75
2022/04/24 08:38:01;;;;;;;2.85;0.38;;;8.30;99.90;;;;;;6194063;23;20007;-75
2022/04/24 08:40:27;;;;;;;1.17;0.35;;;8.30;99.90;;;;;;6193540;23;20021;-75
2022/04/24 08:42:54;;;;;;;2.22;0.30;;;8.50;99.90;;;;;;6194083;23;20334;-75
2022/04/24 08:45:28;;;;;;;1.10;0.40;;;8.50;99.90;;;;;;6166577;23;20067;-76
2022/04/24 08:47:55;;;;;;;1.13;0.35;;;8.50;99.90;;;;;;6194672;23;20012;-75
2022/04/24 08:50:22;;;;;;;1.20;0.35;;;8.60;99.90;;;;;;6193925;23;20005;-75
2022/04/24 08:52:49;;;;;;;1.88;0.65;;;8.60;99.90;;;;;;6194674;23;20008;-76
2022/04/24 08:55:19;;;;;;;1.33;0.68;;;8.70;99.90;;;;;;6168059;23;20060;-76
2022/04/24 08:57:44;;;;;;;1.40;0.43;;;8.70;99.90;;;;;;6194520;23;20076;-77
2022/04/24 09:00:11;;;;;;;2.33;0.55;;;8.80;99.90;;;;;;6192993;23;20001;-77
2022/04/24 09:02:37;;;;;;;1.90;0.60;;;8.80;99.90;;;;;;6194502;23;20032;-77
2022/04/24 09:05:06;;;;;;;2.63;0.70;;;8.80;99.90;;;;;;6167845;23;20055;-77
2022/04/24 09:07:33;;;;;;;1.80;0.40;;;8.80;99.90;;;;;;6168497;23;19997;-77
2022/04/24 09:10:11;;;;;;;1.77;0.52;;;8.80;99.90;;;;;;6194576;23;20056;-77
2022/04/24 09:12:38;;;;;;;1.00;0.40;;;8.80;99.90;;;;;;6168360;23;20039;-78
2022/04/24 09:15:08;;;;;;;0.80;0.40;;;9.00;99.90;;;;;;6193473;23;20745;-77
2022/04/24 09:17:35;;;;;;;1.67;0.40;;;9.00;99.90;;;;;;6168458;23;20009;-76
2022/04/24 09:20:51;;;;;;;1.42;0.40;;;9.00;99.90;;;;;;6194420;23;20012;-79
2022/04/24 09:24:16;;;;;;;1.33;0.40;;;8.80;99.90;;;;;;6193397;23;20005;-81
2022/04/24 09:26:53;;;;;;;1.23;0.40;;;8.90;99.90;;;;;;6144107;23;20009;-77
2022/04/24 09:29:21;;;;;;;2.47;0.80;;;9.00;99.90;;;;;;6193794;23;20000;-77
2022/04/24 09:31:51;;;;;;;1.15;0.50;;;9.00;99.90;;;;;;6193855;23;20187;-78
2022/04/24 09:34:19;;;;;;;3.45;1.05;;;9.10;99.90;;;;;;6167062;23;20076;-77
2022/04/24 09:36:46;;;;;;;2.60;1.13;;;9.00;99.90;;;;;;6195784;23;20004;-78
2022/04/24 09:39:12;;;;;;;6.72;2.72;;;8.90;99.90;;;;;;6169339;23;20001;-77
2022/04/24 09:41:39;;;;;;;2.50;0.60;;;9.00;99.90;;;;;;6171368;23;20254;-76
2022/04/24 09:44:15;;;;;;;4.55;1.50;;;8.90;99.90;;;;;;6140507;23;20024;-77
2022/04/24 09:46:41;;;;;;;2.40;0.90;;;8.80;99.90;;;;;;6182574;23;20013;-77
2022/04/24 09:49:10;;;;;;;2.00;0.90;;;9.00;99.90;;;;;;6169760;23;20038;-75
2022/04/24 09:51:43;;;;;;;49.28;3.90;;;9.10;99.90;;;;;;6170254;23;20358;-77
2022/04/24 09:54:09;;;;;;;2.42;0.80;;;9.20;99.90;;;;;;6195894;23;19996;-75
2022/04/24 09:56:36;;;;;;;2.53;0.82;;;9.30;99.90;;;;;;6195787;23;20291;-75
2022/04/24 09:59:03;;;;;;;1.85;0.50;;;9.30;99.90;;;;;;6196286;23;20075;-76
2022/04/24 10:01:29;;;;;;;5.33;1.50;;;9.40;99.90;;;;;;6194627;23;20303;-77
2022/04/24 10:03:57;;;;;;;4.50;2.10;;;9.50;99.90;;;;;;6195624;23;20009;-74
2022/04/24 10:06:24;;;;;;;7.13;1.90;;;9.40;99.90;;;;;;6195359;23;20020;-75
2022/04/24 10:08:51;;;;;;;3.70;1.90;;;9.40;99.90;;;;;;6195664;23;19997;-75
2022/04/24 10:11:17;;;;;;;4.25;2.17;;;9.40;99.90;;;;;;6169547;23;20001;-75
2022/04/24 10:13:46;;;;;;;2.50;1.10;;;9.30;99.90;;;;;;6195841;23;20182;-76
2022/04/24 10:16:21;;;;;;;2.17;0.80;;;9.50;99.90;;;;;;6194958;23;20199;-75
2022/04/24 10:19:00;;;;;;;1.85;0.98;;;9.60;99.90;;;;;;6196218;23;20004;-74
2022/04/24 10:21:47;;;;;;;;;;;9.70;99.90;;;;;;6169192;23;20004;-75
2022/04/24 10:24:13;;;;;;;1.98;0.80;;;9.70;99.90;;;;;;6195610;23;19908;-75
2022/04/24 10:26:39;;;;;;;2.63;0.90;;;9.60;99.90;;;;;;6195491;23;20031;-75
2022/04/24 10:29:09;;;;;;;2.15;0.85;;;9.70;99.90;;;;;;6195483;23;20195;-75
2022/04/24 10:31:43;;;;;;;2.88;0.77;;;9.60;99.90;;;;;;6194535;23;20184;-75
2022/04/24 10:34:09;;;;;;;2.47;0.80;;;9.80;99.90;;;;;;6195468;23;19997;-75
2022/04/24 10:36:35;;;;;;;2.38;0.88;;;9.70;99.90;;;;;;6195908;23;20054;-75
2022/04/24 10:39:13;;;;;;;3.10;0.75;;;9.80;99.90;;;;;;6195865;23;20001;-75
2022/04/24 10:41:39;;;;;;;1.30;0.57;;;10.00;99.90;;;;;;6195650;23;20001;-76
2022/04/24 10:44:15;;;;;;;1.42;0.40;;;9.90;99.90;;;;;;6195921;23;20001;-75
2022/04/24 10:46:42;;;;;;;4.65;1.42;;;9.80;99.90;;;;;;6194664;23;20021;-76
2022/04/24 10:49:16;;;;;;;2.55;0.50;;;9.80;99.90;;;;;;6194900;23;20048;-75
2022/04/24 10:51:44;;;;;;;1.85;0.63;;;9.90;99.90;;;;;;6195591;23;19997;-76
2022/04/24 10:54:13;;;;;;;;;;;9.80;99.90;;;;;;6195393;23;20064;-76
2022/04/24 10:56:41;;;;;;;1.50;0.73;;;9.90;99.90;;;;;;6169504;23;19899;-75
2022/04/24 10:59:16;;;;;;;1.90;0.57;;;9.80;99.90;;;;;;6195792;23;20035;-76
2022/04/24 11:01:44;;;;;;;1.90;0.60;;;9.60;99.90;;;;;;6168825;23;20322;-75
2022/04/24 11:04:12;;;;;;;1.95;0.90;;;9.60;99.90;;;;;;6195909;23;20013;-75
2022/04/24 11:06:38;;;;;;;2.25;0.60;;;9.50;99.90;;;;;;6203709;23;20001;-74
2022/04/24 11:09:12;;;;;;;3.33;0.50;;;9.40;99.90;;;;;;6210108;23;20036;-76
2022/04/24 11:11:52;;;;;;;2.83;1.00;;;9.40;99.90;;;;;;6212353;23;19997;-75
2022/04/24 11:14:27;;;;;;;2.92;1.05;;;9.30;99.90;;;;;;6199694;23;20004;-77
2022/04/24 11:16:58;;;;;;;1.77;0.70;;;9.20;99.90;;;;;;6168697;23;20016;-77
2022/04/24 11:19:32;;;;;;;2.00;0.68;;;9.20;99.90;;;;;;6194753;23;20009;-77
2022/04/24 11:22:03;;;;;;;2.40;0.88;;;9.30;99.90;;;;;;6195286;23;20024;-77
2022/04/24 11:24:31;;;;;;;1.67;0.55;;;9.30;99.90;;;;;;6194611;23;20012;-76
2022/04/24 11:27:01;;;;;;;;;;;9.20;99.90;;;;;;6195618;23;20001;-76
2022/04/24 11:29:27;;;;;;;0.98;0.40;;;9.30;99.90;;;;;;6195191;23;19924;-77
2022/04/24 11:31:54;;;;;;;2.45;0.77;;;9.50;99.90;;;;;;6194871;23;20048;-77
2022/04/24 11:34:22;;;;;;;1.02;0.30;;;9.50;99.90;;;;;;6195220;23;20338;-75
2022/04/24 11:36:49;;;;;;;1.77;0.40;;;9.60;99.90;;;;;;6195488;23;20001;-75
2022/04/24 11:39:16;;;;;;;1.30;0.32;;;9.50;99.90;;;;;;6168595;23;20396;-76
2022/04/24 11:41:43;;;;;;;1.80;0.50;;;9.60;99.90;;;;;;6168552;23;20278;-77
2022/04/24 11:52:46;;;;;;;1.33;0.50;;;9.70;99.90;;;;;;6168807;23;20172;-77
2022/04/24 11:55:21;;;;;;;1.65;0.88;;;9.70;99.90;;;;;;6194117;23;20281;-78
2022/04/24 11:57:57;;;;;;;2.03;0.63;;;9.90;99.90;;;;;;6195274;23;20194;-78
2022/04/24 12:00:37;;;;;;;2.08;0.60;;;9.70;99.90;;;;;;6193989;23;20016;-75
2022/04/24 12:03:05;;;;;;;1.90;0.38;;;9.80;99.90;;;;;;6195009;23;20311;-77
2022/04/24 12:05:32;;;;;;;1.17;0.47;;;9.80;99.90;;;;;;6194217;23;20035;-76
2022/04/24 12:07:58;;;;;;;1.30;0.40;;;9.90;99.90;;;;;;6195203;23;20270;-76
2022/04/24 12:10:25;;;;;;;1.33;0.40;;;9.90;99.90;;;;;;6194748;23;20206;-77
2022/04/24 12:12:52;;;;;;;2.28;0.43;;;10.10;99.90;;;;;;6168531;23;20005;-75
2022/04/24 12:15:21;;;;;;;1.42;0.50;;;10.10;99.90;;;;;;6193889;23;20000;-75
2022/04/24 12:17:55;;;;;;;0.85;0.40;;;10.00;99.90;;;;;;6194861;23;19997;-75
2022/04/24 12:20:33;;;;;;;1.95;0.60;;;10.00;99.90;;;;;;6194875;23;20008;-77
2022/04/24 12:23:12;;;;;;;0.98;0.40;;;10.00;99.90;;;;;;6194697;23;20275;-75
2022/04/24 12:25:49;;;;;;;1.25;0.35;;;10.10;99.90;;;;;;6194147;23;20267;-78
2022/04/24 12:28:35;;;;;;;1.35;0.52;;;10.30;99.90;;;;;;6194647;23;20464;-76
2022/04/24 12:31:02;;;;;;;2.30;0.60;;;10.60;99.90;;;;;;6194062;23;20013;-76
2022/04/24 12:33:30;;;;;;;2.70;0.70;;;10.60;99.90;;;;;;6167919;23;20187;-75
2022/04/24 12:36:13;;;;;;;2.65;0.63;;;10.70;99.90;;;;;;6194500;23;20008;-75
2022/04/24 12:38:39;;;;;;;2.17;0.63;;;10.90;99.90;;;;;;6193992;23;20294;-76
2022/04/24 12:41:13;;;;;;;1.25;0.35;;;11.00;99.90;;;;;;6194241;23;20008;-76
2022/04/24 12:43:39;;;;;;;1.92;0.70;;;11.20;99.90;;;;;;6192798;23;20009;-75
2022/04/24 12:46:06;;;;;;;1.20;0.43;;;11.40;99.90;;;;;;6193468;23;20024;-76
2022/04/24 12:48:32;;;;;;;1.80;0.40;;;11.40;99.90;;;;;;6167206;23;20009;-76
2022/04/24 12:50:58;;;;;;;1.65;0.40;;;11.60;99.90;;;;;;6194432;23;20287;-75
2022/04/24 12:53:24;;;;;;;2.75;0.30;;;11.70;99.90;;;;;;6167471;23;20008;-76
2022/04/24 12:55:53;;;;;;;0.90;0.30;;;11.60;99.90;;;;;;6168385;23;20012;-74
2022/04/24 12:58:20;;;;;;;1.23;0.20;;;11.50;99.90;;;;;;6194607;23;20267;-74
2022/04/24 13:00:46;;;;;;;1.23;0.30;;;11.50;99.90;;;;;;6193897;23;20017;-76
2022/04/24 13:03:14;;;;;;;0.98;0.20;;;11.50;99.90;;;;;;6143332;23;20137;-76
2022/04/24 13:05:42;;;;;;;1.10;0.28;;;11.30;99.90;;;;;;6193672;23;20005;-76
2022/04/24 13:08:09;;;;;;;0.68;0.20;;;11.30;99.90;;;;;;6193868;23;20012;-76
2022/04/24 13:10:34;;;;;;;1.38;0.20;;;11.30;99.90;;;;;;6193089;23;20338;-76
2022/04/24 13:13:02;;;;;;;1.80;0.40;;;11.40;99.90;;;;;;6193840;23;20001;-76
2022/04/24 13:15:31;;;;;;;1.42;0.40;;;11.30;99.90;;;;;;6193033;23;20016;-76
2022/04/24 13:18:07;;;;;;;2.17;0.30;;;11.40;99.90;;;;;;6194029;23;19998;-76
2022/04/24 13:20:44;;;;;;;0.98;0.30;;;11.60;99.90;;;;;;6193536;23;20006;-74
2022/04/24 13:23:12;;;;;;;1.23;0.40;;;11.60;99.90;;;;;;6193503;23;20009;-75
2022/04/24 13:25:40;;;;;;;1.45;0.40;;;11.60;99.90;;;;;;6193227;23;20100;-75
2022/04/24 13:28:07;;;;;;;1.77;0.40;;;11.60;99.90;;;;;;6194047;23;20008;-75
2022/04/24 13:30:35;;;;;;;1.33;0.30;;;11.70;99.90;;;;;;6166242;23;20012;-76
2022/04/24 13:33:02;;;;;;;1.85;0.47;;;11.80;99.90;;;;;;6167716;23;20049;-76
2022/04/24 13:35:27;;;;;;;1.45;0.40;;;11.80;99.90;;;;;;6192743;23;20012;-76
2022/04/24 13:40:38;;;;;;;1.20;0.30;;;11.70;99.90;;;;;;6166872;23;20016;-76
2022/04/24 13:43:05;;;;;;;1.55;0.43;;;11.70;99.90;;;;;;6167584;23;20001;-76
2022/04/24 13:45:36;;;;;;;1.80;0.40;;;11.70;99.90;;;;;;6166676;23;20190;-75
2022/04/24 13:48:03;;;;;;;1.45;0.50;;;11.60;99.90;;;;;;6168076;23;20005;-74
2022/04/24 13:50:30;;;;;;;2.00;0.60;;;11.60;99.90;;;;;;6142302;23;20040;-75
2022/04/24 13:52:58;;;;;;;1.75;0.40;;;11.60;99.90;;;;;;6167514;23;20001;-75
2022/04/24 13:55:24;;;;;;;1.58;0.50;;;11.60;99.90;;;;;;6192744;23;20167;-75
2022/04/24 13:57:50;;;;;;;1.90;0.60;;;11.70;99.90;;;;;;6167786;23;20040;-75
2022/04/24 14:00:16;;;;;;;1.63;0.50;;;11.60;99.90;;;;;;6167117;23;20001;-76
2022/04/24 14:02:42;;;;;;;1.60;0.35;;;11.60;99.90;;;;;;6167201;23;20072;-76
2022/04/24 14:05:09;;;;;;;2.67;0.50;;;11.50;99.90;;;;;;6143268;23;20012;-74
2022/04/24 14:07:35;;;;;;;2.25;0.52;;;11.50;99.90;;;;;;6142614;23;20054;-76
2022/04/24 14:10:02;;;;;;;1.10;0.30;;;11.40;99.90;;;;;;6143047;23;20027;-76
2022/04/24 14:12:28;;;;;;;2.08;0.60;;;11.40;99.90;;;;;;6142772;23;20110;-75
2022/04/24 14:14:54;;;;;;;1.60;0.60;;;11.30;99.90;;;;;;6143313;23;20214;-75
2022/04/24 14:17:20;;;;;;;2.25;0.63;;;11.30;99.90;;;;;;6166815;23;20040;-76
2022/04/24 14:19:46;;;;;;;1.17;0.30;;;11.30;99.90;;;;;;6167178;23;20258;-75
2022/04/24 14:22:12;;;;;;;2.30;0.50;;;11.30;99.90;;;;;;6143520;23;20013;-75
2022/04/24 14:24:38;;;;;;;2.05;0.98;;;11.20;99.90;;;;;;6168861;23;20068;-75
2022/04/24 14:27:04;;;;;;;1.33;0.60;;;11.20;99.90;;;;;;6145552;23;20024;-77
2022/04/24 14:29:31;;;;;;;1.33;0.60;;;11.20;99.90;;;;;;6143865;23;20005;-75
2022/04/24 14:31:57;;;;;;;1.80;0.60;;;11.20;99.90;;;;;;6169291;23;20316;-76
2022/04/24 14:34:24;;;;;;;1.35;0.20;;;11.10;99.90;;;;;;6169725;23;20282;-74
2022/04/24 14:36:50;;;;;;;2.35;0.60;;;11.20;99.90;;;;;;6144661;23;20055;-74
2022/04/24 14:39:16;;;;;;;1.80;0.40;;;11.20;99.90;;;;;;6145148;23;20295;-74
2022/04/24 14:41:42;;;;;;;2.53;0.50;;;11.10;99.90;;;;;;6169008;23;20008;-74
2022/04/24 14:44:08;;;;;;;2.88;0.40;;;11.20;99.90;;;;;;6169837;23;20001;-75
2022/04/24 14:58:09;;;;;;;1.00;0.40;;;10.80;99.90;;;;;;6195529;23;20001;-75
2022/04/24 15:00:36;;;;;;;3.10;0.60;;;10.70;99.90;;;;;;6194420;23;20049;-76
2022/04/24 15:03:04;;;;;;;1.35;0.30;;;10.60;99.90;;;;;;6163903;23;20016;-75
2022/04/24 15:05:30;;;;;;;1.45;0.50;;;10.50;99.90;;;;;;6165344;23;20187;-76
2022/04/24 15:07:57;;;;;;;2.55;0.80;;;10.40;99.90;;;;;;6165771;23;20002;-75
2022/04/24 15:10:23;;;;;;;1.75;0.80;;;10.30;99.90;;;;;;6165575;23;20002;-75
2022/04/24 15:12:49;;;;;;;2.17;0.80;;;10.30;99.90;;;;;;6165467;23;20489;-75
2022/04/24 15:15:15;;;;;;;2.40;1.00;;;10.30;99.90;;;;;;6165210;23;20041;-75
2022/04/24 15:17:40;;;;;;;2.10;0.90;;;10.30;99.90;;;;;;6165367;23;20348;-76
2022/04/24 15:20:07;;;;;;;2.85;1.00;;;10.50;99.90;;;;;;6165566;23;20040;-75
2022/04/24 15:22:34;;;;;;;2.67;1.10;;;10.50;99.90;;;;;;6165451;23;19997;-75
2022/04/24 15:25:00;;;;;;;2.78;1.13;;;10.50;99.90;;;;;;6165675;23;20064;-75
2022/04/24 15:27:26;;;;;;;2.65;1.38;;;10.50;99.90;;;;;;6165504;23;20195;-75
2022/04/24 15:29:52;;;;;;;2.58;1.20;;;10.60;99.90;;;;;;6165253;23;20002;-76
2022/04/24 15:32:18;;;;;;;4.35;1.10;;;10.60;99.90;;;;;;6164739;23;20159;-75
2022/04/24 15:34:43;;;;;;;1.88;0.93;;;10.60;99.90;;;;;;6164439;23;20057;-75
2022/04/24 15:37:11;;;;;;;1.30;0.60;;;10.60;99.90;;;;;;6165245;23;20097;-75
2022/04/24 15:39:38;;;;;;;1.65;0.77;;;10.50;99.90;;;;;;6164989;23;19997;-75
2022/04/24 15:42:09;;;;;;;1.88;0.68;;;10.50;99.90;;;;;;6165785;23;20176;-76
2022/04/24 15:47:21;;;;;;;2.85;1.10;;;10.40;99.90;;;;;;6164939;23;20041;-75
2022/04/24 15:49:48;;;;;;;2.80;1.00;;;10.40;99.90;;;;;;6165236;23;20005;-76
2022/04/24 15:52:14;;;;;;;1.95;0.93;;;10.40;99.90;;;;;;6165061;23;20060;-75
2022/04/24 15:54:41;;;;;;;1.92;0.85;;;10.40;99.90;;;;;;6165025;23;20183;-75
2022/04/24 15:57:07;;;;;;;1.77;0.80;;;10.40;99.90;;;;;;6163718;23;20012;-75
2022/04/24 15:59:36;;;;;;;1.90;0.90;;;10.50;99.90;;;;;;6165109;23;20056;-75
2022/04/24 16:02:02;;;;;;;1.20;0.55;;;10.50;99.90;;;;;;6168303;23;20010;-75
2022/04/24 16:04:28;;;;;;;2.00;0.80;;;10.50;99.90;;;;;;6168993;23;20009;-75
2022/04/24 16:06:57;;;;;;;2.83;1.13;;;10.60;99.90;;;;;;6194596;23;20008;-76
2022/04/24 16:09:23;;;;;;;1.75;0.90;;;10.60;99.90;;;;;;6195041;23;20012;-76
2022/04/24 16:11:49;;;;;;;2.58;1.00;;;10.60;99.90;;;;;;6194290;23;19997;-76
2022/04/24 16:14:16;;;;;;;2.78;1.00;;;10.60;99.90;;;;;;6168682;23;20194;-76
2022/04/24 16:16:42;;;;;;;3.15;1.15;;;10.60;99.90;;;;;;6193519;23;20072;-76
2022/04/24 16:19:08;;;;;;;2.33;1.05;;;10.60;99.90;;;;;;6194886;23;19989;-78
2022/04/24 16:21:35;;;;;;;3.58;1.30;;;10.70;99.90;;;;;;6168336;23;20005;-75
2022/04/24 16:24:03;;;;;;;3.50;1.52;;;10.80;99.90;;;;;;6194212;23;20005;-74
2022/04/24 16:26:29;;;;;;;3.63;1.27;;;10.70;99.90;;;;;;6168727;23;20009;-74
2022/04/24 16:28:54;;;;;;;3.35;1.90;;;10.70;99.90;;;;;;6194185;23;20019;-75
2022/04/24 16:31:21;;;;;;;4.28;2.33;;;10.70;99.90;;;;;;6193940;23;20013;-75
2022/04/24 16:33:48;;;;;;;4.68;2.45;;;10.70;99.90;;;;;;6167953;23;20025;-75
2022/04/24 16:36:14;;;;;;;4.57;2.50;;;10.80;99.90;;;;;;6194283;23;20187;-75
2022/04/24 16:38:41;;;;;;;4.72;2.85;;;10.70;99.90;;;;;;6194118;23;20052;-75
2022/04/24 16:41:07;;;;;;;7.25;3.08;;;10.80;99.90;;;;;;6194516;23;20032;-75
2022/04/24 16:43:35;;;;;;;5.10;3.25;;;10.80;99.90;;;;;;6194286;23;20375;-75
2022/04/24 16:46:01;;;;;;;6.15;3.88;;;10.90;99.90;;;;;;6167609;23;20025;-75
2022/04/24 16:48:28;;;;;;;7.13;3.80;;;10.80;99.90;;;;;;6194291;23;20306;-75
2022/04/24 16:59:08;;;;;;;6.82;4.78;;;10.70;99.90;;;;;;6168538;23;20068;-76
2022/04/24 17:01:34;;;;;;;8.70;4.72;;;10.70;99.90;;;;;;6193747;23;20242;-76
2022/04/24 17:03:59;;;;;;;10.15;5.63;;;10.70;99.90;;;;;;6194083;23;20075;-75
2022/04/24 17:06:26;;;;;;;7.90;5.43;;;10.70;99.90;;;;;;6194549;23;20009;-75
2022/04/24 17:08:52;;;;;;;8.75;5.90;;;10.60;99.90;;;;;;6193566;23;20018;-76
2022/04/24 17:11:20;;;;;;;10.55;5.97;;;10.60;99.90;;;;;;6193085;23;20001;-76
2022/04/24 17:13:46;;;;;;;11.60;5.80;;;10.50;99.90;;;;;;6168027;23;20020;-76
2022/04/24 17:16:12;;;;;;;9.75;6.22;;;10.50;99.90;;;;;;6193360;23;20021;-75
2022/04/24 17:18:38;;;;;;;9.55;5.75;;;10.60;99.90;;;;;;6193493;23;19989;-75
2022/04/24 17:21:07;;;;;;;8.00;4.93;;;10.50;99.90;;;;;;6194404;23;20099;-77
2022/04/24 17:23:33;;;;;;;7.78;4.80;;;10.50;99.90;;;;;;6194306;23;20060;-75
2022/04/24 17:26:02;;;;;;;7.53;4.85;;;10.60;99.90;;;;;;6193786;23;20001;-75
2022/04/24 17:28:30;;;;;;;7.45;4.65;;;10.50;99.90;;;;;;6194645;23;20035;-75
2022/04/24 17:30:56;;;;;;;7.22;4.72;;;10.50;99.90;;;;;;6192873;23;20069;-76
2022/04/24 17:33:21;;;;;;;6.93;4.30;;;10.50;99.90;;;;;;6189034;23;20017;-75
2022/04/24 17:35:47;;;;;;;8.32;5.10;;;10.50;99.90;;;;;;6193825;23;20001;-75
2022/04/24 17:38:13;;;;;;;8.00;4.47;;;10.50;99.90;;;;;;6194397;23;20040;-78
2022/04/24 17:40:40;;;;;;;8.10;5.15;;;10.50;99.90;;;;;;6193586;23;20001;-76
2022/04/24 17:43:06;;;;;;;8.50;4.70;;;10.50;99.90;;;;;;6194247;23;20001;-75
2022/04/24 17:45:31;;;;;;;6.57;4.30;;;10.50;99.90;;;;;;6164975;23;20033;-75
2022/04/24 17:47:57;;;;;;;8.57;5.13;;;10.50;99.90;;;;;;6193939;23;20013;-76
2022/04/24 17:50:26;;;;;;;7.55;4.70;;;10.50;99.90;;;;;;6168107;23;19997;-75
2022/04/24 17:52:52;;;;;;;9.50;5.47;;;10.50;99.90;;;;;;6194096;23;20011;-76
2022/04/24 17:55:19;;;;;;;7.32;4.88;;;10.50;99.90;;;;;;6194077;23;20085;-75
2022/04/24 17:57:45;;;;;;;9.48;5.63;;;10.50;99.90;;;;;;6168437;23;20012;-76
2022/04/24 18:00:13;;;;;;;8.32;5.13;;;10.50;99.90;;;;;;6195469;23;19989;-76
2022/04/24 18:02:39;;;;;;;8.23;5.70;;;10.50;99.90;;;;;;6196018;23;20017;-75
2022/04/24 18:05:09;;;;;;;9.73;5.70;;;10.40;99.90;;;;;;6195786;23;20012;-76
2022/04/24 18:07:36;;;;;;;8.27;5.13;;;10.50;99.90;;;;;;6196036;23;20187;-76
2022/04/24 18:10:02;;;;;;;8.63;5.20;;;10.50;99.90;;;;;;6194967;23;20065;-75
2022/04/24 18:12:28;;;;;;;8.48;5.57;;;10.50;99.90;;;;;;6194361;23;20056;-75
2022/04/24 18:14:55;;;;;;;7.82;5.40;;;10.50;99.90;;;;;;6169329;23;19997;-77
2022/04/24 18:17:24;;;;;;;9.75;6.22;;;10.50;99.90;;;;;;6195395;23;20017;-75
2022/04/24 18:19:50;;;;;;;10.20;5.85;;;10.50;99.90;;;;;;6195481;23;20008;-75
2022/04/24 18:22:16;;;;;;;8.68;6.47;;;10.50;99.90;;;;;;6196150;23;20029;-75
2022/04/24 18:24:42;;;;;;;9.95;6.57;;;10.50;99.90;;;;;;6195497;23;20013;-73
2022/04/24 18:27:08;;;;;;;9.93;5.97;;;10.50;99.90;;;;;;6195649;23;20287;-76
2022/04/24 18:29:34;;;;;;;8.95;5.43;;;10.50;99.90;;;;;;6195939;23;20043;-75
2022/04/24 18:32:00;;;;;;;8.38;5.72;;;10.50;99.90;;;;;;6168354;23;20104;-76